sensor_id;sensor_type;location;lat;lon;timestamp;pressure;altitude;pressure_sealevel;temperature;humidity
18850;BME280;4989;48.772;9.154;2023-02-14T00:02:53;99834.75;;;2.62;100.00
18850;BME280;4989;48.772;9.154;2023-02-14T00:07:55;99824.63;;;2.67;100.00
18850;BME280;4989;48.772;9.154;2023-02-14T00:12:58;99823.34;;;2.73;100.00
18850;BME280;4989;48.772;9.154;2023-02-14T00:18:00;99824.81;;;2.92;100.00
18850;BME280;4989;48.772;9.154;2023-02-14T00:23:04;99834.53;;;2.75;100.00
18850;BME280;4989;48.772;9.154;2023-02-14T00:28:06;99830.59;;;2.73;100.00
18850;BME280;4989;48.772;9.154;2023-02-14T00:33:09;99831.47;;;2.86;100.00
18850;BME280;4989;48.772;9.154;2023-02-14T00:38:12;99832.06;;;3.00;100.00
18850;BME280;4989;48.772;9.154;2023-02-14T00:43:14;99833.91;;;3.29;100.00
18850;BME280;4989;48.772;9.154;2023-02-14T00:48:17;99828.34;;;3.13;100.00
18850;BME280;4989;48.772;9.154;2023-02-14T00:53:20;99829.34;;;2.70;100.00
18850;BME280;4989;48.772;9.154;2023-02-14T00:58:24;99829.16;;;3.05;100.00
18850;BME280;4989;48.772;9.154;2023-02-14T01:03:28;99830.59;;;3.53;100.00
18850;BME280;4989;48.772;9.154;2023-02-14T01:08:31;99832.97;;;3.55;100.00
18850;BME280;4989;48.772;9.154;2023-02-14T01:13:34;99833.13;;;2.99;100.00
18850;BME280;4989;48.772;9.154;2023-02-14T01:18:37;99837.00;;;3.40;100.00
18850;BME280;4989;48.772;9.154;2023-02-14T01:23:40;99832.06;;;3.00;100.00
18850;BME280;4989;48.772;9.154;2023-02-14T01:28:43;99833.91;;;2.32;100.00
18850;BME280;4989;48.772;9.154;2023-02-14T01:33:47;99834.53;;;2.28;100.00
18850;BME280;4989;48.772;9.154;2023-02-14T01:38:55;99824.59;;;2.29;100.00
18850;BME280;4989;48.772;9.154;2023-02-14T01:44:07;99817.09;;;2.52;100.00
18850;BME280;4989;48.772;9.154;2023-02-14T01:49:34;99816.22;;;3.28;100.00
18850;BME280;4989;48.772;9.154;2023-02-14T01:54:43;99816.13;;;3.46;100.00
18850;BME280;4989;48.772;9.154;2023-02-14T01:59:55;99821.31;;;3.63;100.00
18850;BME280;4989;48.772;9.154;2023-02-14T02:05:19;99815.16;;;2.70;100.00
18850;BME280;4989;48.772;9.154;2023-02-14T02:10:25;99816.31;;;2.51;100.00
18850;BME280;4989;48.772;9.154;2023-02-14T02:15:30;99821.91;;;2.76;100.00
18850;BME280;4989;48.772;9.154;2023-02-14T02:21:17;99820.47;;;2.79;100.00
18850;BME280;4989;48.772;9.154;2023-02-14T02:37:37;99814.91;;;3.13;100.00
18850;BME280;4989;48.772;9.154;2023-02-14T02:43:10;99811.75;;;3.11;100.00
18850;BME280;4989;48.772;9.154;2023-02-14T02:48:21;99799.69;;;3.17;100.00
18850;BME280;4989;48.772;9.154;2023-02-14T02:53:27;99801.81;;;3.33;100.00
18850;BME280;4989;48.772;9.154;2023-02-14T02:58:36;99806.81;;;3.43;100.00
18850;BME280;4989;48.772;9.154;2023-02-14T03:03:40;99804.59;;;3.45;100.00
18850;BME280;4989;48.772;9.154;2023-02-14T03:15:20;99799.84;;;3.42;100.00
18850;BME280;4989;48.772;9.154;2023-02-14T03:20:30;99807.47;;;3.40;100.00
18850;BME280;4989;48.772;9.154;2023-02-14T03:25:45;99814.41;;;3.41;100.00
18850;BME280;4989;48.772;9.154;2023-02-14T03:31:02;99817.53;;;3.43;100.00
18850;BME280;4989;48.772;9.154;2023-02-14T03:36:16;99809.25;;;3.06;100.00
18850;BME280;4989;48.772;9.154;2023-02-14T03:41:25;99815.81;;;3.17;100.00
18850;BME280;4989;48.772;9.154;2023-02-14T03:51:40;99812.25;;;2.45;100.00
18850;BME280;4989;48.772;9.154;2023-02-14T03:56:55;99807.16;;;1.97;100.00
18850;BME280;4989;48.772;9.154;2023-02-14T04:02:26;99802.47;;;1.76;100.00
18850;BME280;4989;48.772;9.154;2023-02-14T04:07:44;99800.97;;;2.14;100.00
18850;BME280;4989;48.772;9.154;2023-02-14T04:12:47;99801.59;;;2.66;100.00
18850;BME280;4989;48.772;9.154;2023-02-14T04:17:50;99801.31;;;2.89;100.00
18850;BME280;4989;48.772;9.154;2023-02-14T04:23:11;99804.63;;;2.86;100.00
18850;BME280;4989;48.772;9.154;2023-02-14T04:28:14;99799.81;;;3.00;100.00
18850;BME280;4989;48.772;9.154;2023-02-14T04:33:17;99799.31;;;2.77;100.00
18850;BME280;4989;48.772;9.154;2023-02-14T04:38:19;99799.63;;;3.26;100.00
18850;BME280;4989;48.772;9.154;2023-02-14T04:43:22;99796.19;;;2.96;100.00
18850;BME280;4989;48.772;9.154;2023-02-14T04:48:25;99793.28;;;2.80;100.00
18850;BME280;4989;48.772;9.154;2023-02-14T04:53:27;99787.63;;;2.82;100.00
18850;BME280;4989;48.772;9.154;2023-02-14T04:58:30;99794.63;;;2.65;100.00
18850;BME280;4989;48.772;9.154;2023-02-14T05:03:32;99798.91;;;2.66;100.00
18850;BME280;4989;48.772;9.154;2023-02-14T05:08:34;99796.28;;;3.08;100.00
18850;BME280;4989;48.772;9.154;2023-02-14T05:13:37;99791.34;;;2.89;100.00
18850;BME280;4989;48.772;9.154;2023-02-14T05:18:39;99792.59;;;2.92;100.00
18850;BME280;4989;48.772;9.154;2023-02-14T05:23:42;99788.13;;;2.96;100.00
18850;BME280;4989;48.772;9.154;2023-02-14T05:28:44;99790.38;;;2.94;100.00
18850;BME280;4989;48.772;9.154;2023-02-14T05:33:47;99789.81;;;2.80;100.00
18850;BME280;4989;48.772;9.154;2023-02-14T05:38:49;99802.22;;;2.63;100.00
18850;BME280;4989;48.772;9.154;2023-02-14T05:43:52;99798.31;;;2.52;100.00
18850;BME280;4989;48.772;9.154;2023-02-14T05:48:54;99794.13;;;2.34;100.00
18850;BME280;4989;48.772;9.154;2023-02-14T05:53:57;99798.34;;;2.43;100.00
18850;BME280;4989;48.772;9.154;2023-02-14T05:59:01;99801.69;;;2.40;100.00
18850;BME280;4989;48.772;9.154;2023-02-14T06:04:03;99804.50;;;2.44;100.00
18850;BME280;4989;48.772;9.154;2023-02-14T06:09:06;99811.88;;;2.94;100.00
18850;BME280;4989;48.772;9.154;2023-02-14T06:14:09;99814.53;;;2.64;100.00
18850;BME280;4989;48.772;9.154;2023-02-14T06:19:11;99806.38;;;2.52;100.00
18850;BME280;4989;48.772;9.154;2023-02-14T06:24:14;99821.59;;;2.31;100.00
18850;BME280;4989;48.772;9.154;2023-02-14T06:29:16;99821.59;;;2.31;100.00
18850;BME280;4989;48.772;9.154;2023-02-14T06:34:19;99826.00;;;2.26;100.00
18850;BME280;4989;48.772;9.154;2023-02-14T06:39:22;99824.97;;;2.57;100.00
18850;BME280;4989;48.772;9.154;2023-02-14T06:44:24;99825.09;;;2.69;100.00
18850;BME280;4989;48.772;9.154;2023-02-14T06:49:27;99819.41;;;2.71;100.00
18850;BME280;4989;48.772;9.154;2023-02-14T06:54:30;99828.44;;;2.66;100.00
18850;BME280;4989;48.772;9.154;2023-02-14T06:59:32;99821.19;;;2.58;100.00
18850;BME280;4989;48.772;9.154;2023-02-14T07:04:34;99824.25;;;2.78;100.00
18850;BME280;4989;48.772;9.154;2023-02-14T07:09:37;99818.41;;;3.05;100.00
18850;BME280;4989;48.772;9.154;2023-02-14T07:14:39;99804.81;;;3.10;100.00
18850;BME280;4989;48.772;9.154;2023-02-14T07:19:42;99816.75;;;3.21;100.00
18850;BME280;4989;48.772;9.154;2023-02-14T07:24:44;99815.75;;;2.75;100.00
18850;BME280;4989;48.772;9.154;2023-02-14T07:29:47;99813.84;;;3.06;100.00
18850;BME280;4989;48.772;9.154;2023-02-14T07:34:50;99807.06;;;3.50;100.00
18850;BME280;4989;48.772;9.154;2023-02-14T07:39:53;99812.03;;;3.60;100.00
18850;BME280;4989;48.772;9.154;2023-02-14T07:44:55;99817.66;;;3.67;100.00
18850;BME280;4989;48.772;9.154;2023-02-14T07:49:58;99823.94;;;3.72;100.00
18850;BME280;4989;48.772;9.154;2023-02-14T07:55:00;99815.16;;;3.62;100.00
18850;BME280;4989;48.772;9.154;2023-02-14T08:00:04;99806.50;;;3.78;100.00
18850;BME280;4989;48.772;9.154;2023-02-14T08:05:13;99804.13;;;3.97;100.00
18850;BME280;4989;48.772;9.154;2023-02-14T08:10:16;99793.84;;;4.11;100.00
18850;BME280;4989;48.772;9.154;2023-02-14T08:15:19;99796.09;;;4.09;100.00
18850;BME280;4989;48.772;9.154;2023-02-14T08:20:40;99795.47;;;3.92;100.00
18850;BME280;4989;48.772;9.154;2023-02-14T08:25:42;99790.69;;;4.09;100.00
18850;BME280;4989;48.772;9.154;2023-02-14T08:30:46;99794.22;;;4.47;100.00
18850;BME280;4989;48.772;9.154;2023-02-14T08:35:49;99794.81;;;4.65;100.00
18850;BME280;4989;48.772;9.154;2023-02-14T08:40:59;99793.44;;;4.95;99.05
18850;BME280;4989;48.772;9.154;2023-02-14T08:46:06;99788.72;;;4.92;97.62
18850;BME280;4989;48.772;9.154;2023-02-14T08:51:10;99794.34;;;4.99;97.66
18850;BME280;4989;48.772;9.154;2023-02-14T08:56:32;99791.78;;;5.43;95.71
18850;BME280;4989;48.772;9.154;2023-02-14T09:01:34;99792.88;;;5.83;92.97
18850;BME280;4989;48.772;9.154;2023-02-14T09:06:38;99781.47;;;5.89;91.80
18850;BME280;4989;48.772;9.154;2023-02-14T09:11:41;99776.16;;;6.05;91.22
18850;BME280;4989;48.772;9.154;2023-02-14T09:16:43;99787.16;;;6.60;93.39
18850;BME280;4989;48.772;9.154;2023-02-14T09:21:46;99781.50;;;7.74;92.69
18850;BME280;4989;48.772;9.154;2023-02-14T09:26:49;99773.72;;;7.92;83.53
18850;BME280;4989;48.772;9.154;2023-02-14T09:31:52;99763.44;;;8.01;83.67
18850;BME280;4989;48.772;9.154;2023-02-14T09:36:55;99756.81;;;8.94;80.21
18850;BME280;4989;48.772;9.154;2023-02-14T09:47:42;99750.41;;;9.06;75.31
18850;BME280;4989;48.772;9.154;2023-02-14T09:52:50;99739.66;;;10.25;72.88
18850;BME280;4989;48.772;9.154;2023-02-14T09:58:14;99750.44;;;11.21;67.00
18850;BME280;4989;48.772;9.154;2023-02-14T10:03:53;99746.88;;;10.44;68.66
18850;BME280;4989;48.772;9.154;2023-02-14T10:14:35;99717.13;;;13.14;59.81
18850;BME280;4989;48.772;9.154;2023-02-14T10:19:54;99733.56;;;14.43;56.37
18850;BME280;4989;48.772;9.154;2023-02-14T10:25:03;99724.72;;;14.70;55.14
18850;BME280;4989;48.772;9.154;2023-02-14T10:30:17;99715.09;;;15.57;51.88
18850;BME280;4989;48.772;9.154;2023-02-14T10:51:15;99698.91;;;12.75;64.24
18850;BME280;4989;48.772;9.154;2023-02-14T10:56:30;99699.66;;;12.87;59.81
18850;BME280;4989;48.772;9.154;2023-02-14T11:01:33;99690.09;;;14.56;56.01
18850;BME280;4989;48.772;9.154;2023-02-14T11:06:36;99678.13;;;13.14;58.58
18850;BME280;4989;48.772;9.154;2023-02-14T11:16:54;99667.25;;;13.77;56.51
18850;BME280;4989;48.772;9.154;2023-02-14T11:21:58;99673.19;;;14.99;54.07
18850;BME280;4989;48.772;9.154;2023-02-14T11:42:43;99647.00;;;23.98;35.11
18850;BME280;4989;48.772;9.154;2023-02-14T11:47:46;99637.78;;;24.16;33.89
18850;BME280;4989;48.772;9.154;2023-02-14T11:52:55;99630.94;;;24.80;34.16
18850;BME280;4989;48.772;9.154;2023-02-14T11:58:00;99628.25;;;25.65;31.74
18850;BME280;4989;48.772;9.154;2023-02-14T12:03:05;99626.47;;;25.47;32.45
18850;BME280;4989;48.772;9.154;2023-02-14T12:08:08;99615.75;;;25.90;32.61
18850;BME280;4989;48.772;9.154;2023-02-14T12:23:37;99605.63;;;23.76;33.13
18850;BME280;4989;48.772;9.154;2023-02-14T12:34:16;99601.09;;;23.54;33.74
18850;BME280;4989;48.772;9.154;2023-02-14T12:50:41;99570.03;;;19.63;41.02
18850;BME280;4989;48.772;9.154;2023-02-14T13:01:56;99571.72;;;19.09;43.34
18850;BME280;4989;48.772;9.154;2023-02-14T13:12:54;99551.00;;;19.90;40.68
18850;BME280;4989;48.772;9.154;2023-02-14T13:18:14;99537.19;;;20.03;40.09
18850;BME280;4989;48.772;9.154;2023-02-14T13:23:47;99526.22;;;20.12;39.05
18850;BME280;4989;48.772;9.154;2023-02-14T13:28:55;99524.69;;;21.86;37.48
18850;BME280;4989;48.772;9.154;2023-02-14T13:34:16;99529.34;;;22.86;36.84
18850;BME280;4989;48.772;9.154;2023-02-14T13:39:35;99524.50;;;19.33;39.66
18850;BME280;4989;48.772;9.154;2023-02-14T13:44:48;99524.34;;;16.67;45.92
18850;BME280;4989;48.772;9.154;2023-02-14T13:49:59;99514.09;;;15.44;48.20
18850;BME280;4989;48.772;9.154;2023-02-14T13:55:07;99507.28;;;14.75;50.31
18850;BME280;4989;48.772;9.154;2023-02-14T14:00:20;99509.22;;;14.09;53.36
18850;BME280;4989;48.772;9.154;2023-02-14T14:21:27;99512.78;;;13.09;57.96
18850;BME280;4989;48.772;9.154;2023-02-14T14:26:36;99502.31;;;13.00;58.24
18850;BME280;4989;48.772;9.154;2023-02-14T14:31:40;99501.94;;;12.95;60.07
18850;BME280;4989;48.772;9.154;2023-02-14T14:36:43;99490.47;;;12.55;60.48
18850;BME280;4989;48.772;9.154;2023-02-14T14:41:46;99499.00;;;12.64;60.40
18850;BME280;4989;48.772;9.154;2023-02-14T14:46:49;99492.03;;;12.59;59.83
18850;BME280;4989;48.772;9.154;2023-02-14T14:51:52;99488.16;;;12.57;61.67
18850;BME280;4989;48.772;9.154;2023-02-14T14:56:58;99479.16;;;12.60;61.12
18850;BME280;4989;48.772;9.154;2023-02-14T15:02:24;99475.31;;;12.54;61.98
18850;BME280;4989;48.772;9.154;2023-02-14T15:07:33;99477.28;;;12.43;61.19
18850;BME280;4989;48.772;9.154;2023-02-14T15:12:36;99477.75;;;12.30;63.57
18850;BME280;4989;48.772;9.154;2023-02-14T15:17:57;99478.94;;;12.26;65.09
18850;BME280;4989;48.772;9.154;2023-02-14T15:23:00;99484.38;;;12.22;67.03
18850;BME280;4989;48.772;9.154;2023-02-14T15:28:04;99484.81;;;12.10;65.99
18850;BME280;4989;48.772;9.154;2023-02-14T15:33:08;99479.78;;;12.05;64.65
18850;BME280;4989;48.772;9.154;2023-02-14T15:38:12;99478.25;;;11.97;63.67
18850;BME280;4989;48.772;9.154;2023-02-14T15:48:33;99480.59;;;11.77;67.90
18850;BME280;4989;48.772;9.154;2023-02-14T15:53:51;99470.47;;;11.70;68.00
18850;BME280;4989;48.772;9.154;2023-02-14T16:04:24;99484.50;;;11.54;67.19
18850;BME280;4989;48.772;9.154;2023-02-14T16:09:30;99482.97;;;11.42;69.44
18850;BME280;4989;48.772;9.154;2023-02-14T16:14:35;99481.41;;;11.27;69.55
18850;BME280;4989;48.772;9.154;2023-02-14T16:19:47;99472.06;;;11.07;69.70
18850;BME280;4989;48.772;9.154;2023-02-14T16:24:49;99475.16;;;10.84;70.13
18850;BME280;4989;48.772;9.154;2023-02-14T16:29:51;99484.31;;;10.32;72.84
18850;BME280;4989;48.772;9.154;2023-02-14T16:34:54;99479.88;;;9.99;73.81
18850;BME280;4989;48.772;9.154;2023-02-14T16:39:56;99486.00;;;9.89;77.13
18850;BME280;4989;48.772;9.154;2023-02-14T16:45:00;99484.00;;;9.79;74.49
18850;BME280;4989;48.772;9.154;2023-02-14T16:50:02;99497.00;;;9.52;75.41
18850;BME280;4989;48.772;9.154;2023-02-14T16:55:09;99494.56;;;9.36;76.58
18850;BME280;4989;48.772;9.154;2023-02-14T17:00:16;99495.38;;;9.40;79.50
18850;BME280;4989;48.772;9.154;2023-02-14T17:05:18;99493.50;;;9.03;79.10
18850;BME280;4989;48.772;9.154;2023-02-14T17:10:21;99502.03;;;9.02;78.35
18850;BME280;4989;48.772;9.154;2023-02-14T17:15:24;99502.16;;;8.79;79.67
18850;BME280;4989;48.772;9.154;2023-02-14T17:20:29;99500.97;;;8.76;79.82
18850;BME280;4989;48.772;9.154;2023-02-14T17:25:31;99518.72;;;8.70;79.54
18850;BME280;4989;48.772;9.154;2023-02-14T17:30:36;99508.50;;;8.56;81.20
18850;BME280;4989;48.772;9.154;2023-02-14T17:35:39;99507.09;;;8.36;83.21
18850;BME280;4989;48.772;9.154;2023-02-14T17:40:41;99500.31;;;8.22;84.00
18850;BME280;4989;48.772;9.154;2023-02-14T17:45:43;99504.91;;;8.18;84.64
18850;BME280;4989;48.772;9.154;2023-02-14T17:50:45;99514.03;;;8.07;85.11
18850;BME280;4989;48.772;9.154;2023-02-14T17:55:47;99515.97;;;8.06;89.54
18850;BME280;4989;48.772;9.154;2023-02-14T18:00:50;99507.41;;;8.31;88.97
18850;BME280;4989;48.772;9.154;2023-02-14T18:05:59;99510.63;;;8.40;92.19
18850;BME280;4989;48.772;9.154;2023-02-14T18:11:09;99511.09;;;8.45;90.03
18850;BME280;4989;48.772;9.154;2023-02-14T18:16:17;99511.19;;;8.56;87.72
18850;BME280;4989;48.772;9.154;2023-02-14T18:21:21;99510.03;;;8.54;86.19
18850;BME280;4989;48.772;9.154;2023-02-14T18:26:25;99505.63;;;8.42;94.51
18850;BME280;4989;48.772;9.154;2023-02-14T18:31:27;99498.81;;;8.55;86.97
18850;BME280;4989;48.772;9.154;2023-02-14T18:36:31;99495.31;;;8.24;86.31
18850;BME280;4989;48.772;9.154;2023-02-14T18:41:33;99502.13;;;8.11;100.00
18850;BME280;4989;48.772;9.154;2023-02-14T18:46:36;99492.13;;;8.45;99.20
18850;BME280;4989;48.772;9.154;2023-02-14T18:51:38;99491.00;;;8.50;96.54
18850;BME280;4989;48.772;9.154;2023-02-14T18:56:40;99488.59;;;8.11;87.24
18850;BME280;4989;48.772;9.154;2023-02-14T19:01:43;99476.09;;;7.50;88.91
18850;BME280;4989;48.772;9.154;2023-02-14T19:06:47;99476.22;;;7.57;93.45
18850;BME280;4989;48.772;9.154;2023-02-14T19:11:50;99481.09;;;7.74;86.83
18850;BME280;4989;48.772;9.154;2023-02-14T19:16:52;99472.22;;;7.74;88.00
18850;BME280;4989;48.772;9.154;2023-02-14T19:22:00;99466.91;;;7.54;92.05
18850;BME280;4989;48.772;9.154;2023-02-14T19:27:02;99472.25;;;7.24;94.35
18850;BME280;4989;48.772;9.154;2023-02-14T19:32:04;99466.13;;;7.54;100.00
18850;BME280;4989;48.772;9.154;2023-02-14T19:37:07;99467.00;;;7.62;99.57
18850;BME280;4989;48.772;9.154;2023-02-14T19:42:09;99446.97;;;7.40;96.44
18850;BME280;4989;48.772;9.154;2023-02-14T19:47:11;99445.25;;;7.05;100.00
18850;BME280;4989;48.772;9.154;2023-02-14T19:52:31;99441.66;;;6.74;92.71
18850;BME280;4989;48.772;9.154;2023-02-14T19:57:33;99443.72;;;7.04;100.00
18850;BME280;4989;48.772;9.154;2023-02-14T20:02:36;99449.59;;;6.86;96.01
18850;BME280;4989;48.772;9.154;2023-02-14T20:07:38;99442.47;;;6.75;93.54
18850;BME280;4989;48.772;9.154;2023-02-14T20:12:40;99443.06;;;6.87;96.42
18850;BME280;4989;48.772;9.154;2023-02-14T20:17:42;99442.78;;;6.31;92.72
18850;BME280;4989;48.772;9.154;2023-02-14T20:22:44;99447.56;;;6.18;100.00
18850;BME280;4989;48.772;9.154;2023-02-14T20:27:46;99441.22;;;6.10;100.00
18850;BME280;4989;48.772;9.154;2023-02-14T20:32:50;99428.72;;;6.22;100.00
18850;BME280;4989;48.772;9.154;2023-02-14T20:37:52;99424.38;;;6.17;100.00
18850;BME280;4989;48.772;9.154;2023-02-14T20:42:55;99418.56;;;5.95;100.00
18850;BME280;4989;48.772;9.154;2023-02-14T20:47:57;99415.16;;;5.99;100.00
18850;BME280;4989;48.772;9.154;2023-02-14T20:53:04;99407.75;;;5.95;100.00
18850;BME280;4989;48.772;9.154;2023-02-14T20:58:06;99400.50;;;5.80;100.00
18850;BME280;4989;48.772;9.154;2023-02-14T21:03:08;99396.41;;;6.06;100.00
18850;BME280;4989;48.772;9.154;2023-02-14T21:08:10;99383.84;;;6.13;100.00
18850;BME280;4989;48.772;9.154;2023-02-14T21:13:12;99388.66;;;6.04;100.00
18850;BME280;4989;48.772;9.154;2023-02-14T21:18:15;99381.19;;;6.17;100.00
18850;BME280;4989;48.772;9.154;2023-02-14T21:23:17;99375.66;;;6.10;100.00
18850;BME280;4989;48.772;9.154;2023-02-14T21:28:19;99376.63;;;6.40;100.00
18850;BME280;4989;48.772;9.154;2023-02-14T21:33:22;99381.13;;;6.56;100.00
18850;BME280;4989;48.772;9.154;2023-02-14T21:38:27;99372.66;;;6.80;100.00
18850;BME280;4989;48.772;9.154;2023-02-14T21:43:33;99365.56;;;6.26;96.97
18850;BME280;4989;48.772;9.154;2023-02-14T21:48:38;99373.84;;;5.94;100.00
18850;BME280;4989;48.772;9.154;2023-02-14T21:53:59;99365.41;;;6.38;100.00
18850;BME280;4989;48.772;9.154;2023-02-14T21:59:01;99357.59;;;6.33;100.00
18850;BME280;4989;48.772;9.154;2023-02-14T22:04:06;99355.91;;;6.25;100.00
18850;BME280;4989;48.772;9.154;2023-02-14T22:09:14;99350.38;;;6.18;100.00
18850;BME280;4989;48.772;9.154;2023-02-14T22:14:18;99355.63;;;6.11;100.00
18850;BME280;4989;48.772;9.154;2023-02-14T22:19:21;99358.84;;;5.97;100.00
18850;BME280;4989;48.772;9.154;2023-02-14T22:24:23;99356.31;;;5.49;100.00
18850;BME280;4989;48.772;9.154;2023-02-14T22:29:26;99345.91;;;5.13;100.00
18850;BME280;4989;48.772;9.154;2023-02-14T22:34:30;99356.47;;;5.21;100.00
18850;BME280;4989;48.772;9.154;2023-02-14T22:39:32;99355.00;;;5.08;100.00
18850;BME280;4989;48.772;9.154;2023-02-14T22:44:34;99341.31;;;4.97;100.00
18850;BME280;4989;48.772;9.154;2023-02-14T22:49:36;99336.66;;;4.78;100.00
18850;BME280;4989;48.772;9.154;2023-02-14T22:54:38;99345.22;;;5.00;100.00
18850;BME280;4989;48.772;9.154;2023-02-14T22:59:41;99338.19;;;4.79;100.00
18850;BME280;4989;48.772;9.154;2023-02-14T23:04:43;99337.75;;;4.93;100.00
18850;BME280;4989;48.772;9.154;2023-02-14T23:09:45;99349.72;;;5.12;100.00
18850;BME280;4989;48.772;9.154;2023-02-14T23:14:50;99333.31;;;5.36;100.00
18850;BME280;4989;48.772;9.154;2023-02-14T23:20:11;99331.03;;;5.38;100.00
18850;BME280;4989;48.772;9.154;2023-02-14T23:25:32;99328.28;;;4.99;100.00
18850;BME280;4989;48.772;9.154;2023-02-14T23:30:35;99332.25;;;4.26;100.00
18850;BME280;4989;48.772;9.154;2023-02-14T23:35:37;99333.94;;;4.31;100.00
18850;BME280;4989;48.772;9.154;2023-02-14T23:40:39;99330.44;;;3.58;100.00
18850;BME280;4989;48.772;9.154;2023-02-14T23:46:01;99338.13;;;3.32;100.00
18850;BME280;4989;48.772;9.154;2023-02-14T23:51:04;99335.91;;;3.21;100.00
18850;BME280;4989;48.772;9.154;2023-02-14T23:56:06;99335.69;;;3.02;100.00
